Terminal Aerodrome Forecast
Issued by NWS

Home | Current Version | Previous Version | Text Only | Print | Product List | Glossary On
Versions: 1 2 3 4 5 6 7 8 9 10 11 12 13 14 15 16 17 18 19 20
210
FTUS45 KABQ 161741
TAFLVS
TAF
KLVS 161741Z 1618/1718 05005KT 3/4SM BR SCT001 OVC050
     FM161900 06008KT P6SM OVC050
     FM170000 10005KT P6SM VCSH OVC020
     FM170400 13006KT 2SM BR OVC010
     FM170700 16005KT 3/4SM BR OVC006
     FM171600 20009KT P6SM SCT010=

USA.gov is the U.S. government's official web portal to all federal, state and local government web resources and services.